createdAt,value
2022-09-07T00:01:21.143Z,52.50
2022-09-07T00:03:49.410Z,54.85
2022-09-07T00:06:17.706Z,56.70
2022-09-07T00:08:46.127Z,57.65
2022-09-07T00:11:16.781Z,59.88
2022-09-07T00:13:46.929Z,60.49
2022-09-07T00:16:19.028Z,61.00
2022-09-07T00:18:47.744Z,61.19
2022-09-07T00:21:18.175Z,61.11
2022-09-07T00:23:48.972Z,61.73
2022-09-07T00:26:20.095Z,63.22
2022-09-07T00:28:49.432Z,65.35
2022-09-07T00:31:21.342Z,66.87
2022-09-07T00:33:52.370Z,67.75
2022-09-07T00:36:22.111Z,69.25
2022-09-07T00:38:51.036Z,71.10
2022-09-07T00:41:20.949Z,72.80
2022-09-07T00:43:51.755Z,73.60
2022-09-07T00:46:23.762Z,74.72
2022-09-07T00:48:56.784Z,74.98
2022-09-07T00:51:30.568Z,75.62
2022-09-07T00:54:02.500Z,76.81
2022-09-07T00:56:35.025Z,77.17
2022-09-07T00:59:04.051Z,79.03
2022-09-07T01:01:35.112Z,79.57
2022-09-07T01:04:04.959Z,82.40
2022-09-07T01:06:35.062Z,84.07
2022-09-07T01:09:06.386Z,85.52
2022-09-07T01:11:35.883Z,86.82
2022-09-07T01:14:07.609Z,86.92
2022-09-07T01:16:55.615Z,87.77
2022-09-07T01:20:06.423Z,88.38
2022-09-07T01:23:06.532Z,89.12
2022-09-07T01:25:43.843Z,89.47
2022-09-07T01:28:20.252Z,89.59
2022-09-07T01:30:56.056Z,90.18
2022-09-07T01:33:45.412Z,90.46
2022-09-07T01:36:18.380Z,90.61
2022-09-07T01:38:50.407Z,91.07
2022-09-07T01:41:26.028Z,91.20
2022-09-07T01:44:02.541Z,91.56
2022-09-07T01:46:41.171Z,91.92
2022-09-07T01:49:13.669Z,91.71
2022-09-07T01:51:45.904Z,91.84
2022-09-07T01:54:21.595Z,91.97
2022-09-07T01:56:54.672Z,92.22
2022-09-07T01:59:30.523Z,92.51
2022-09-07T02:02:05.352Z,92.78
2022-09-07T02:04:39.514Z,93.12
2022-09-07T02:07:14.040Z,93.25
2022-09-07T02:09:50.445Z,93.31
2022-09-07T02:12:25.164Z,93.50
2022-09-07T02:15:00.078Z,93.60
2022-09-07T02:17:34.292Z,93.60
2022-09-07T02:20:09.789Z,93.66
2022-09-07T02:22:42.395Z,93.55
2022-09-07T02:25:15.540Z,93.57
2022-09-07T02:27:48.016Z,93.65
2022-09-07T02:30:18.339Z,93.93
2022-09-07T02:32:46.845Z,93.86
2022-09-07T02:35:15.831Z,94.13
2022-09-07T02:37:46.051Z,94.06
2022-09-07T02:40:15.076Z,94.11
2022-09-07T02:42:44.916Z,94.17
2022-09-07T02:45:14.895Z,94.29
2022-09-07T02:48:12.519Z,94.34
2022-09-07T02:50:54.725Z,94.28
2022-09-07T02:53:44.137Z,94.35
2022-09-07T02:56:26.041Z,94.28
2022-09-07T02:59:03.975Z,94.36
2022-09-07T03:01:46.058Z,94.40
2022-09-07T03:04:24.949Z,94.60
2022-09-07T03:06:58.777Z,94.61
2022-09-07T03:09:32.519Z,94.80
2022-09-07T03:12:03.709Z,94.85
2022-09-07T03:14:33.640Z,95.02
2022-09-07T03:17:02.931Z,95.11
2022-09-07T03:19:32.606Z,95.23
2022-09-07T03:22:00.969Z,95.24
2022-09-07T03:24:29.571Z,95.31
2022-09-07T03:26:58.465Z,95.41
2022-09-07T03:29:27.003Z,95.47
2022-09-07T03:31:55.428Z,95.59
2022-09-07T03:34:23.898Z,95.55
2022-09-07T03:36:55.611Z,95.54
2022-09-07T03:39:24.226Z,95.68
2022-09-07T03:41:52.759Z,95.72
2022-09-07T03:44:21.772Z,95.69
2022-09-07T03:46:49.988Z,95.75
2022-09-07T03:49:18.977Z,95.65
2022-09-07T03:51:48.275Z,95.75
2022-09-07T03:54:17.886Z,95.82
2022-09-07T03:56:46.230Z,95.87
2022-09-07T03:59:14.535Z,95.88
2022-09-07T04:01:43.001Z,96.02
2022-09-07T04:04:11.632Z,95.92
2022-09-07T04:06:39.967Z,96.00
2022-09-07T04:09:09.969Z,96.08
2022-09-07T04:11:40.486Z,96.13
2022-09-07T04:14:09.606Z,96.25
2022-09-07T04:16:38.492Z,96.29
2022-09-07T04:19:06.929Z,96.19
2022-09-07T04:21:35.786Z,96.24
2022-09-07T04:24:04.922Z,96.32
2022-09-07T04:26:35.534Z,96.35
2022-09-07T04:29:06.951Z,96.26
2022-09-07T04:31:35.772Z,96.27
2022-09-07T04:34:04.867Z,96.42
2022-09-07T04:36:36.349Z,96.48
2022-09-07T04:39:06.933Z,96.50
2022-09-07T04:41:35.701Z,96.43
2022-09-07T04:44:06.025Z,96.72
2022-09-07T04:46:36.777Z,96.58
2022-09-07T04:49:10.153Z,96.60
2022-09-07T04:51:40.165Z,96.75
2022-09-07T04:54:08.461Z,96.61
2022-09-07T04:56:36.883Z,96.71
2022-09-07T04:59:06.569Z,96.74
2022-09-07T05:01:34.978Z,97.07
2022-09-07T05:04:04.918Z,96.91
2022-09-07T05:06:33.308Z,96.97
2022-09-07T05:09:02.040Z,96.96
2022-09-07T05:11:30.708Z,97.03
2022-09-07T05:13:59.872Z,96.94
2022-09-07T05:16:31.168Z,97.09
2022-09-07T05:19:01.637Z,97.12
2022-09-07T05:21:31.987Z,97.20
2022-09-07T05:24:01.410Z,97.22
2022-09-07T05:26:32.822Z,97.39
2022-09-07T05:31:54.725Z,97.34
2022-09-07T05:34:30.984Z,97.42
2022-09-07T05:37:00.246Z,97.47
2022-09-07T05:39:29.642Z,97.31
2022-09-07T05:41:58.114Z,97.13
2022-09-07T05:47:12.902Z,97.12
2022-09-07T05:49:41.920Z,97.08
2022-09-07T05:52:10.559Z,96.97
2022-09-07T05:54:39.328Z,96.91
2022-09-07T05:57:08.441Z,96.92
2022-09-07T05:59:37.149Z,96.76
2022-09-07T06:02:06.039Z,96.86
2022-09-07T06:04:35.809Z,96.86
2022-09-07T06:07:21.132Z,96.58
2022-09-07T06:12:39.756Z,96.41
2022-09-07T06:15:09.671Z,96.28
2022-09-07T06:17:38.051Z,96.38
2022-09-07T06:20:09.341Z,96.26
2022-09-07T06:22:38.576Z,96.11
2022-09-07T06:25:07.314Z,95.92
2022-09-07T06:27:35.607Z,95.85
2022-09-07T06:30:04.207Z,95.69
2022-09-07T06:32:47.822Z,95.61
2022-09-07T06:35:18.617Z,95.49
2022-09-07T06:37:46.837Z,95.39
2022-09-07T06:40:15.381Z,95.32
2022-09-07T06:42:43.806Z,95.20
2022-09-07T06:45:12.984Z,95.07
2022-09-07T06:47:42.162Z,94.56
2022-09-07T06:50:12.916Z,92.95
2022-09-07T06:55:31.229Z,88.84
2022-09-07T06:57:59.439Z,89.44
2022-09-07T07:00:27.818Z,87.99
2022-09-07T07:02:56.129Z,88.54
2022-09-07T07:05:24.453Z,86.96
2022-09-07T07:08:25.333Z,85.55
2022-09-07T07:11:11.693Z,86.17
2022-09-07T07:13:41.693Z,85.82
2022-09-07T07:16:11.742Z,85.23
2022-09-07T07:18:40.642Z,82.98
2022-09-07T07:21:10.429Z,81.52
2022-09-07T07:23:43.459Z,83.31
2022-09-07T07:26:44.536Z,82.17
2022-09-07T07:29:24.035Z,80.13
2022-09-07T07:31:54.765Z,77.28
2022-09-07T07:34:23.247Z,70.23
2022-09-07T07:36:59.698Z,61.60
2022-09-07T07:42:35.837Z,52.94
2022-09-07T07:47:52.574Z,58.28
2022-09-07T07:50:36.272Z,60.71
2022-09-07T07:55:55.699Z,59.42
2022-09-07T07:58:24.682Z,60.15
2022-09-07T08:00:55.516Z,57.66
2022-09-07T08:03:27.370Z,54.46
2022-09-07T08:05:56.371Z,51.33
2022-09-07T08:08:25.042Z,48.71
2022-09-07T08:10:53.759Z,47.52
2022-09-07T08:13:23.453Z,44.93
2022-09-07T08:15:51.903Z,44.58
2022-09-07T08:18:20.401Z,42.61
2022-09-07T08:20:50.438Z,43.33
2022-09-07T08:23:20.379Z,43.71
2022-09-07T08:25:53.264Z,45.65
2022-09-07T08:28:24.628Z,47.08
2022-09-07T08:30:53.579Z,49.97
2022-09-07T08:33:21.893Z,52.02
2022-09-07T08:35:58.114Z,52.75
2022-09-07T08:38:27.413Z,52.40
2022-09-07T08:40:55.723Z,52.36
2022-09-07T08:43:42.410Z,51.09
2022-09-07T08:46:20.787Z,46.97
2022-09-07T08:48:50.129Z,50.83
2022-09-07T08:51:34.456Z,55.51
2022-09-07T08:54:04.041Z,57.67
2022-09-07T08:56:36.675Z,58.02
2022-09-07T08:59:20.004Z,59.00
2022-09-07T09:02:27.019Z,60.50
2022-09-07T09:06:11.117Z,61.95
2022-09-07T09:07:32.652Z,63.07
2022-09-07T09:10:17.607Z,65.44
2022-09-07T09:13:20.731Z,66.05
2022-09-07T09:15:59.491Z,67.44
2022-09-07T09:18:53.379Z,66.28
2022-09-07T09:21:21.806Z,68.22
2022-09-07T09:23:53.516Z,68.15
2022-09-07T09:26:25.369Z,67.67
2022-09-07T09:28:54.346Z,68.37
2022-09-07T09:31:27.350Z,66.18
2022-09-07T09:34:10.393Z,65.88
2022-09-07T09:36:46.934Z,65.31
2022-09-07T09:39:31.961Z,66.06
2022-09-07T09:42:15.330Z,65.86
2022-09-07T09:44:45.493Z,67.35
2022-09-07T09:47:30.580Z,67.55
2022-09-07T09:50:00.900Z,65.25
2022-09-07T09:52:51.436Z,62.18
2022-09-07T09:55:34.831Z,58.68
2022-09-07T10:06:23.472Z,37.11
2022-09-07T10:08:58.870Z,40.63
2022-09-07T10:14:36.147Z,49.13
2022-09-07T10:17:14.415Z,48.79
2022-09-07T10:19:44.973Z,49.48
2022-09-07T10:22:33.127Z,48.52
2022-09-07T10:25:02.321Z,45.89
2022-09-07T10:27:34.555Z,47.32
2022-09-07T10:30:10.752Z,51.08
2022-09-07T10:32:55.426Z,56.00
2022-09-07T10:35:29.804Z,58.31
2022-09-07T10:38:09.899Z,58.43
2022-09-07T10:40:44.261Z,56.53
2022-09-07T10:43:23.164Z,52.94
2022-09-07T10:46:07.075Z,47.03
2022-09-07T10:48:42.594Z,44.90
2022-09-07T10:51:18.298Z,45.81
2022-09-07T10:54:30.020Z,43.99
2022-09-07T10:56:50.028Z,45.96
2022-09-07T11:02:36.539Z,45.20
2022-09-07T11:05:14.814Z,43.99
2022-09-07T11:07:58.326Z,46.46
2022-09-07T11:10:37.687Z,46.09
2022-09-07T11:13:09.351Z,45.81
2022-09-07T11:15:44.026Z,45.56
2022-09-07T11:18:19.034Z,47.27
2022-09-07T11:20:54.929Z,49.82
2022-09-07T11:23:30.097Z,47.14
2022-09-07T11:26:05.205Z,42.04
2022-09-07T11:28:45.351Z,38.47
2022-09-07T11:31:20.609Z,37.00
2022-09-07T11:36:57.167Z,28.08
2022-09-07T11:39:35.391Z,27.61
2022-09-07T11:45:03.751Z,35.51
2022-09-07T11:47:39.247Z,33.58
2022-09-07T11:50:16.986Z,33.67
2022-09-07T11:52:53.571Z,37.67
2022-09-07T11:55:27.439Z,40.02
2022-09-07T11:58:17.947Z,41.17
2022-09-07T12:00:56.956Z,35.74
2022-09-07T12:03:39.505Z,31.26
2022-09-07T12:06:45.584Z,37.06
2022-09-07T12:09:46.925Z,41.30
2022-09-07T12:12:42.164Z,44.13
2022-09-07T12:15:28.162Z,39.81
2022-09-07T12:18:14.233Z,35.69
2022-09-07T12:20:44.895Z,34.42
2022-09-07T12:23:25.993Z,30.75
2022-09-07T12:26:47.392Z,26.50
2022-09-07T12:29:26.199Z,24.95
2022-09-07T12:31:58.692Z,25.39
2022-09-07T12:34:52.403Z,27.78
2022-09-07T12:37:39.911Z,27.35
2022-09-07T12:40:50.240Z,31.53
2022-09-07T12:43:54.374Z,36.40
2022-09-07T12:47:05.261Z,38.30
2022-09-07T12:50:19.544Z,37.11
2022-09-07T12:53:11.798Z,35.50
2022-09-07T12:56:18.135Z,34.52
2022-09-07T12:58:59.312Z,39.22
2022-09-07T13:01:37.676Z,39.96
2022-09-07T13:04:22.952Z,37.12
2022-09-07T13:08:08.031Z,40.02
2022-09-07T13:10:40.718Z,41.70
2022-09-07T13:14:02.697Z,41.04
2022-09-07T13:16:31.617Z,36.65
2022-09-07T13:19:02.774Z,36.36
2022-09-07T13:21:40.714Z,37.35
2022-09-07T13:24:47.384Z,36.06
2022-09-07T13:27:46.745Z,35.13
2022-09-07T13:30:23.576Z,33.57
2022-09-07T13:33:08.349Z,33.25
2022-09-07T13:35:37.675Z,33.56
2022-09-07T13:38:06.338Z,31.38
2022-09-07T13:40:39.157Z,28.38
2022-09-07T13:43:17.708Z,31.57
2022-09-07T13:45:59.991Z,35.41
2022-09-07T13:48:35.288Z,32.43
2022-09-07T13:51:10.442Z,29.28
2022-09-07T13:53:46.753Z,29.12
2022-09-07T13:56:22.365Z,28.56
2022-09-07T13:58:53.978Z,29.22
2022-09-07T14:01:25.279Z,27.30
2022-09-07T14:03:57.144Z,25.78
2022-09-07T14:06:34.053Z,25.30
2022-09-07T14:09:05.426Z,26.23
2022-09-07T14:11:42.367Z,31.71
2022-09-07T14:14:16.402Z,30.82
2022-09-07T14:16:47.638Z,29.99
2022-09-07T14:19:24.258Z,32.87
2022-09-07T14:22:01.727Z,33.67
2022-09-07T14:24:34.768Z,36.67
2022-09-07T14:27:05.216Z,36.45
2022-09-07T14:29:37.228Z,34.26
2022-09-07T14:32:14.036Z,34.47
2022-09-07T14:34:44.709Z,37.38
2022-09-07T14:37:16.360Z,40.34
2022-09-07T14:39:49.323Z,43.61
2022-09-07T14:42:23.104Z,42.74
2022-09-07T14:45:21.081Z,39.43
2022-09-07T14:47:52.433Z,39.81
2022-09-07T14:50:24.104Z,39.84
2022-09-07T14:55:46.525Z,41.48
2022-09-07T14:58:25.248Z,41.60
2022-09-07T15:04:00.538Z,42.17
2022-09-07T15:09:31.234Z,41.43
2022-09-07T15:12:05.296Z,41.39
2022-09-07T15:14:33.720Z,43.21
2022-09-07T15:19:52.679Z,42.82
2022-09-07T15:22:22.065Z,43.02
2022-09-07T15:24:50.851Z,42.91
2022-09-07T15:27:20.367Z,43.38
2022-09-07T15:29:48.628Z,43.83
2022-09-07T15:32:19.261Z,45.38
2022-09-07T15:34:47.699Z,45.25
2022-09-07T15:40:04.676Z,44.76
2022-09-07T15:45:21.234Z,45.87
2022-09-07T15:47:53.401Z,46.10
2022-09-07T15:50:25.573Z,46.70
2022-09-07T15:52:54.134Z,45.95
2022-09-07T15:55:22.382Z,44.84
2022-09-07T15:57:59.246Z,44.53
2022-09-07T16:00:34.607Z,44.74
2022-09-07T16:03:05.781Z,45.71
2022-09-07T16:05:35.480Z,46.06
2022-09-07T16:10:54.445Z,45.09
2022-09-07T16:13:24.754Z,45.15
2022-09-07T16:15:53.031Z,45.47
2022-09-07T16:18:22.686Z,45.04
2022-09-07T16:20:53.965Z,44.75
2022-09-07T16:23:22.444Z,44.86
2022-09-07T16:25:58.576Z,44.01
2022-09-07T16:28:28.172Z,45.08
2022-09-07T16:30:56.839Z,45.97
2022-09-07T16:33:33.093Z,45.63
2022-09-07T16:36:07.279Z,45.70
2022-09-07T16:38:51.131Z,46.26
2022-09-07T16:41:22.887Z,46.51
2022-09-07T16:43:51.739Z,46.41
2022-09-07T16:46:21.759Z,46.81
2022-09-07T16:48:52.219Z,47.49
2022-09-07T16:51:22.786Z,47.25
2022-09-07T16:53:52.865Z,47.55
2022-09-07T16:56:23.286Z,47.50
2022-09-07T16:58:54.004Z,47.32
2022-09-07T17:01:24.500Z,47.71
2022-09-07T17:03:54.545Z,47.54
2022-09-07T17:06:24.854Z,47.62
2022-09-07T17:09:43.913Z,47.99
2022-09-07T17:12:12.603Z,47.89
2022-09-07T17:14:41.187Z,47.15
2022-09-07T17:17:09.385Z,47.47
2022-09-07T17:19:38.928Z,48.04
2022-09-07T17:22:09.125Z,47.38
2022-09-07T17:24:37.721Z,47.71
2022-09-07T17:27:06.398Z,48.63
2022-09-07T17:29:37.059Z,48.39
2022-09-07T17:34:56.262Z,48.78
2022-09-07T17:37:25.441Z,49.07
2022-09-07T17:39:54.018Z,49.47
2022-09-07T17:42:24.596Z,49.11
2022-09-07T17:44:53.285Z,49.87
2022-09-07T17:47:22.039Z,49.16
2022-09-07T17:49:50.289Z,49.61
2022-09-07T17:52:19.828Z,49.79
2022-09-07T17:54:48.653Z,50.35
2022-09-07T17:57:17.018Z,50.74
2022-09-07T18:00:14.342Z,51.37
2022-09-07T18:02:48.130Z,51.12
2022-09-07T18:05:16.581Z,53.22
2022-09-07T18:07:46.820Z,54.18
2022-09-07T18:10:15.580Z,54.17
2022-09-07T18:12:43.843Z,55.29
2022-09-07T18:15:12.366Z,56.29
2022-09-07T18:17:40.547Z,57.11
2022-09-07T18:20:09.903Z,58.09
2022-09-07T18:22:38.967Z,58.56
2022-09-07T18:25:10.422Z,59.07
2022-09-07T18:27:40.442Z,59.76
2022-09-07T18:30:10.749Z,60.15
2022-09-07T18:32:40.018Z,60.78
2022-09-07T18:35:09.441Z,61.15
2022-09-07T18:37:39.434Z,61.51
2022-09-07T18:40:10.736Z,62.30
2022-09-07T18:42:40.558Z,62.63
2022-09-07T18:47:57.489Z,62.93
2022-09-07T18:50:26.604Z,63.48
2022-09-07T18:52:59.217Z,63.63
2022-09-07T18:55:34.381Z,64.41
2022-09-07T18:58:03.039Z,65.25
2022-09-07T19:00:32.383Z,65.46
2022-09-07T19:03:00.814Z,66.00
2022-09-07T19:08:17.486Z,66.24
2022-09-07T19:10:47.174Z,66.61
2022-09-07T19:13:15.467Z,67.25
2022-09-07T19:15:43.737Z,67.65
2022-09-07T19:18:11.916Z,67.94
2022-09-07T19:20:40.392Z,68.28
2022-09-07T19:23:08.706Z,68.53
2022-09-07T19:25:42.127Z,68.77
2022-09-07T19:28:11.842Z,69.24
2022-09-07T19:30:52.136Z,69.71
2022-09-07T19:33:20.364Z,70.07
2022-09-07T19:35:48.773Z,69.89
2022-09-07T19:38:17.866Z,69.91
2022-09-07T19:40:46.210Z,69.85
2022-09-07T19:43:16.095Z,70.23
2022-09-07T19:45:44.614Z,69.82
2022-09-07T19:48:12.816Z,69.76
2022-09-07T19:50:41.722Z,70.27
2022-09-07T19:53:09.975Z,70.81
2022-09-07T19:55:38.344Z,70.94
2022-09-07T19:58:06.917Z,71.31
2022-09-07T20:00:38.130Z,71.65
2022-09-07T20:03:09.581Z,71.63
2022-09-07T20:05:38.870Z,71.48
2022-09-07T20:08:07.382Z,71.71
2022-09-07T20:10:36.244Z,71.44
2022-09-07T20:13:04.734Z,71.43
2022-09-07T20:15:33.135Z,71.73
2022-09-07T20:18:02.961Z,71.66
2022-09-07T20:20:34.542Z,71.47
2022-09-07T20:23:03.175Z,71.27
2022-09-07T20:25:31.820Z,71.62
2022-09-07T20:28:00.254Z,72.27
2022-09-07T20:30:33.554Z,72.02
2022-09-07T20:33:04.343Z,72.48
2022-09-07T20:35:32.818Z,72.49
2022-09-07T20:38:02.554Z,72.96
2022-09-07T20:40:32.077Z,73.49
2022-09-07T20:43:01.242Z,73.71
2022-09-07T20:45:31.941Z,73.56
2022-09-07T20:48:00.827Z,73.40
2022-09-07T20:50:30.923Z,73.48
2022-09-07T20:53:00.085Z,73.44
2022-09-07T20:55:28.934Z,73.52
2022-09-07T20:57:57.177Z,74.02
2022-09-07T21:00:26.088Z,74.50
2022-09-07T21:02:55.145Z,74.41
2022-09-07T21:05:23.406Z,74.47
2022-09-07T21:07:53.286Z,74.57
2022-09-07T21:10:22.690Z,74.85
2022-09-07T21:12:53.234Z,74.96
2022-09-07T21:15:21.522Z,75.02
2022-09-07T21:17:50.004Z,75.24
2022-09-07T21:20:22.450Z,75.71
2022-09-07T21:22:52.799Z,75.67
2022-09-07T21:25:20.979Z,75.82
2022-09-07T21:27:49.379Z,76.19
2022-09-07T21:30:19.040Z,76.11
2022-09-07T21:32:52.589Z,76.15
2022-09-07T21:35:22.749Z,75.93
2022-09-07T21:37:54.494Z,76.13
2022-09-07T21:40:24.749Z,75.72
2022-09-07T21:42:53.091Z,75.34
2022-09-07T21:45:22.048Z,75.23
2022-09-07T21:47:51.960Z,75.39
2022-09-07T21:50:20.339Z,75.51
2022-09-07T21:52:49.227Z,75.62
2022-09-07T21:55:23.404Z,75.47
2022-09-07T21:57:59.777Z,75.48
2022-09-07T22:00:28.511Z,75.38
2022-09-07T22:02:59.723Z,75.72
2022-09-07T22:05:28.425Z,75.86
2022-09-07T22:08:05.935Z,76.12
2022-09-07T22:10:36.186Z,76.39
2022-09-07T22:13:04.617Z,76.72
2022-09-07T22:15:37.605Z,76.74
2022-09-07T22:18:06.697Z,77.09
2022-09-07T22:20:36.116Z,77.02
2022-09-07T22:23:12.053Z,77.12
2022-09-07T22:25:54.708Z,77.17
2022-09-07T22:28:30.145Z,77.43
2022-09-07T22:31:12.838Z,78.08
2022-09-07T22:33:46.435Z,78.18
2022-09-07T22:36:19.556Z,78.46
2022-09-07T22:38:49.924Z,78.54
2022-09-07T22:41:23.682Z,78.74
2022-09-07T22:43:52.446Z,78.97
2022-09-07T22:46:24.279Z,78.96
2022-09-07T22:48:55.270Z,78.88
2022-09-07T22:51:26.522Z,79.05
2022-09-07T22:53:56.038Z,78.94
2022-09-07T22:56:28.259Z,78.84
2022-09-07T22:58:58.614Z,79.21
2022-09-07T23:01:27.764Z,79.03
2022-09-07T23:03:59.249Z,78.78
2022-09-07T23:06:29.910Z,78.81
2022-09-07T23:09:00.855Z,78.61
2022-09-07T23:11:30.932Z,78.25
2022-09-07T23:14:01.544Z,77.90
2022-09-07T23:16:30.259Z,77.62
2022-09-07T23:19:00.449Z,77.31
2022-09-07T23:21:31.460Z,77.29
2022-09-07T23:24:02.447Z,77.00
2022-09-07T23:26:35.482Z,76.87
2022-09-07T23:29:05.503Z,76.72
2022-09-07T23:31:37.018Z,76.31
2022-09-07T23:34:05.867Z,76.41
2022-09-07T23:36:34.482Z,76.20
2022-09-07T23:39:02.676Z,76.33
2022-09-07T23:41:33.622Z,76.12
2022-09-07T23:44:02.700Z,76.41
2022-09-07T23:46:43.794Z,76.55
2022-09-07T23:49:17.083Z,76.63
2022-09-07T23:51:45.469Z,76.72
2022-09-07T23:54:13.710Z,76.84
2022-09-07T23:56:43.425Z,76.97
2022-09-07T23:59:11.771Z,76.96
